sensor_id;sensor_type;location;lat;lon;timestamp;temperature;humidity
758;DHT22;363;48.764;9.172;2023-04-25T00:00:18;9.80;99.90
758;DHT22;363;48.764;9.172;2023-04-25T00:02:43;10.10;99.90
758;DHT22;363;48.764;9.172;2023-04-25T00:05:09;9.80;99.90
758;DHT22;363;48.764;9.172;2023-04-25T00:07:34;9.90;99.90
758;DHT22;363;48.764;9.172;2023-04-25T00:10:00;10.00;99.90
758;DHT22;363;48.764;9.172;2023-04-25T00:12:26;10.20;99.90
758;DHT22;363;48.764;9.172;2023-04-25T00:14:54;10.00;99.90
758;DHT22;363;48.764;9.172;2023-04-25T00:17:22;10.40;99.90
758;DHT22;363;48.764;9.172;2023-04-25T00:19:50;10.00;99.90
758;DHT22;363;48.764;9.172;2023-04-25T00:22:15;10.50;99.90
758;DHT22;363;48.764;9.172;2023-04-25T00:24:41;10.20;99.90
758;DHT22;363;48.764;9.172;2023-04-25T00:27:07;10.50;99.90
758;DHT22;363;48.764;9.172;2023-04-25T00:29:33;10.00;99.90
758;DHT22;363;48.764;9.172;2023-04-25T00:31:59;10.30;99.90
758;DHT22;363;48.764;9.172;2023-04-25T00:34:24;10.10;99.90
758;DHT22;363;48.764;9.172;2023-04-25T00:36:50;9.90;99.90
758;DHT22;363;48.764;9.172;2023-04-25T00:39:16;10.10;99.90
758;DHT22;363;48.764;9.172;2023-04-25T00:41:41;9.90;99.90
758;DHT22;363;48.764;9.172;2023-04-25T00:44:08;10.20;99.90
758;DHT22;363;48.764;9.172;2023-04-25T00:46:36;9.70;99.90
758;DHT22;363;48.764;9.172;2023-04-25T00:49:02;10.10;99.90
758;DHT22;363;48.764;9.172;2023-04-25T00:51:27;9.80;99.90
758;DHT22;363;48.764;9.172;2023-04-25T00:53:53;10.00;99.90
758;DHT22;363;48.764;9.172;2023-04-25T00:56:19;10.20;99.90
758;DHT22;363;48.764;9.172;2023-04-25T00:58:45;9.90;99.90
758;DHT22;363;48.764;9.172;2023-04-25T01:01:11;10.00;99.90
758;DHT22;363;48.764;9.172;2023-04-25T01:03:38;10.00;99.90
758;DHT22;363;48.764;9.172;2023-04-25T01:06:08;10.10;99.90
758;DHT22;363;48.764;9.172;2023-04-25T01:08:34;10.20;99.90
758;DHT22;363;48.764;9.172;2023-04-25T01:11:00;9.80;99.90
758;DHT22;363;48.764;9.172;2023-04-25T01:13:26;9.90;99.90
758;DHT22;363;48.764;9.172;2023-04-25T01:15:52;10.10;99.90
758;DHT22;363;48.764;9.172;2023-04-25T01:18:19;10.10;99.90
758;DHT22;363;48.764;9.172;2023-04-25T01:20:46;9.60;99.90
758;DHT22;363;48.764;9.172;2023-04-25T01:23:12;9.60;99.90
758;DHT22;363;48.764;9.172;2023-04-25T01:25:38;9.90;99.90
758;DHT22;363;48.764;9.172;2023-04-25T01:28:05;9.80;99.90
758;DHT22;363;48.764;9.172;2023-04-25T01:30:30;10.40;99.90
758;DHT22;363;48.764;9.172;2023-04-25T01:32:56;10.40;99.90
758;DHT22;363;48.764;9.172;2023-04-25T01:35:22;9.90;99.90
758;DHT22;363;48.764;9.172;2023-04-25T01:37:49;10.10;99.90
758;DHT22;363;48.764;9.172;2023-04-25T01:40:15;10.20;99.90
758;DHT22;363;48.764;9.172;2023-04-25T01:42:42;10.20;99.90
758;DHT22;363;48.764;9.172;2023-04-25T01:45:09;10.20;99.90
758;DHT22;363;48.764;9.172;2023-04-25T01:47:36;9.80;99.90
758;DHT22;363;48.764;9.172;2023-04-25T01:50:06;9.20;99.90
758;DHT22;363;48.764;9.172;2023-04-25T01:52:31;9.70;99.90
758;DHT22;363;48.764;9.172;2023-04-25T01:54:57;9.70;99.90
758;DHT22;363;48.764;9.172;2023-04-25T01:57:24;9.10;99.90
758;DHT22;363;48.764;9.172;2023-04-25T01:59:50;9.90;99.90
758;DHT22;363;48.764;9.172;2023-04-25T02:02:16;9.60;99.90
758;DHT22;363;48.764;9.172;2023-04-25T02:04:41;9.40;99.90
758;DHT22;363;48.764;9.172;2023-04-25T02:07:07;9.50;99.90
758;DHT22;363;48.764;9.172;2023-04-25T02:09:33;9.70;99.90
758;DHT22;363;48.764;9.172;2023-04-25T02:11:58;9.90;99.90
758;DHT22;363;48.764;9.172;2023-04-25T02:14:24;9.50;99.90
758;DHT22;363;48.764;9.172;2023-04-25T02:16:49;9.70;99.90
758;DHT22;363;48.764;9.172;2023-04-25T02:19:16;9.70;99.90
758;DHT22;363;48.764;9.172;2023-04-25T02:21:42;9.80;99.90
758;DHT22;363;48.764;9.172;2023-04-25T02:24:07;10.20;99.90
758;DHT22;363;48.764;9.172;2023-04-25T02:26:33;10.20;99.90
758;DHT22;363;48.764;9.172;2023-04-25T02:28:58;9.70;99.90
758;DHT22;363;48.764;9.172;2023-04-25T02:31:25;9.60;99.90
758;DHT22;363;48.764;9.172;2023-04-25T02:33:51;9.40;99.90
758;DHT22;363;48.764;9.172;2023-04-25T02:36:16;10.00;99.90
758;DHT22;363;48.764;9.172;2023-04-25T02:38:42;9.50;99.90
758;DHT22;363;48.764;9.172;2023-04-25T02:41:07;9.70;99.90
758;DHT22;363;48.764;9.172;2023-04-25T02:43:33;9.50;99.90
758;DHT22;363;48.764;9.172;2023-04-25T02:45:58;9.50;99.90
758;DHT22;363;48.764;9.172;2023-04-25T02:48:24;10.10;99.90
758;DHT22;363;48.764;9.172;2023-04-25T02:50:49;9.40;99.90
758;DHT22;363;48.764;9.172;2023-04-25T02:53:15;9.40;99.90
758;DHT22;363;48.764;9.172;2023-04-25T02:55:40;9.80;99.90
758;DHT22;363;48.764;9.172;2023-04-25T02:58:06;9.30;99.90
758;DHT22;363;48.764;9.172;2023-04-25T03:00:31;9.30;99.90
758;DHT22;363;48.764;9.172;2023-04-25T03:02:57;9.40;99.90
758;DHT22;363;48.764;9.172;2023-04-25T03:05:22;9.50;99.90
758;DHT22;363;48.764;9.172;2023-04-25T03:07:48;9.60;99.90
758;DHT22;363;48.764;9.172;2023-04-25T03:10:14;8.90;99.90
758;DHT22;363;48.764;9.172;2023-04-25T03:12:39;9.40;99.90
758;DHT22;363;48.764;9.172;2023-04-25T03:15:05;9.70;99.90
758;DHT22;363;48.764;9.172;2023-04-25T03:17:31;9.50;99.90
758;DHT22;363;48.764;9.172;2023-04-25T03:19:57;9.80;99.90
758;DHT22;363;48.764;9.172;2023-04-25T03:22:23;9.20;99.90
758;DHT22;363;48.764;9.172;2023-04-25T03:24:49;9.80;99.90
758;DHT22;363;48.764;9.172;2023-04-25T03:27:15;9.30;99.90
758;DHT22;363;48.764;9.172;2023-04-25T03:29:41;9.40;99.90
758;DHT22;363;48.764;9.172;2023-04-25T03:32:06;9.10;99.90
758;DHT22;363;48.764;9.172;2023-04-25T03:34:32;9.10;99.90
758;DHT22;363;48.764;9.172;2023-04-25T03:36:57;8.90;99.90
758;DHT22;363;48.764;9.172;2023-04-25T03:39:23;9.50;99.90
758;DHT22;363;48.764;9.172;2023-04-25T03:41:48;8.80;99.90
758;DHT22;363;48.764;9.172;2023-04-25T03:44:14;9.30;99.90
758;DHT22;363;48.764;9.172;2023-04-25T03:46:39;9.10;99.90
758;DHT22;363;48.764;9.172;2023-04-25T03:49:05;9.20;99.90
758;DHT22;363;48.764;9.172;2023-04-25T03:51:31;8.90;99.90
758;DHT22;363;48.764;9.172;2023-04-25T03:53:56;9.60;99.90
758;DHT22;363;48.764;9.172;2023-04-25T03:56:22;9.10;99.90
758;DHT22;363;48.764;9.172;2023-04-25T03:58:47;9.20;99.90
758;DHT22;363;48.764;9.172;2023-04-25T04:01:13;9.10;99.90
758;DHT22;363;48.764;9.172;2023-04-25T04:03:38;9.00;99.90
758;DHT22;363;48.764;9.172;2023-04-25T04:06:05;9.20;99.90
758;DHT22;363;48.764;9.172;2023-04-25T04:08:32;8.70;99.90
758;DHT22;363;48.764;9.172;2023-04-25T04:10:58;8.80;99.90
758;DHT22;363;48.764;9.172;2023-04-25T04:13:26;9.20;99.90
758;DHT22;363;48.764;9.172;2023-04-25T04:15:51;9.20;99.90
758;DHT22;363;48.764;9.172;2023-04-25T04:18:17;8.50;99.90
758;DHT22;363;48.764;9.172;2023-04-25T04:20:43;8.50;99.90
758;DHT22;363;48.764;9.172;2023-04-25T04:23:08;9.10;99.90
758;DHT22;363;48.764;9.172;2023-04-25T04:25:34;8.80;99.90
758;DHT22;363;48.764;9.172;2023-04-25T04:27:59;8.60;99.90
758;DHT22;363;48.764;9.172;2023-04-25T04:30:26;8.60;99.90
758;DHT22;363;48.764;9.172;2023-04-25T04:32:55;9.20;99.90
758;DHT22;363;48.764;9.172;2023-04-25T04:35:22;8.70;99.90
758;DHT22;363;48.764;9.172;2023-04-25T04:37:47;8.80;99.90
758;DHT22;363;48.764;9.172;2023-04-25T04:40:14;8.90;99.90
758;DHT22;363;48.764;9.172;2023-04-25T04:42:41;8.90;99.90
758;DHT22;363;48.764;9.172;2023-04-25T04:45:08;9.00;99.90
758;DHT22;363;48.764;9.172;2023-04-25T04:47:34;9.10;99.90
758;DHT22;363;48.764;9.172;2023-04-25T04:50:05;9.10;99.90
758;DHT22;363;48.764;9.172;2023-04-25T04:52:32;9.00;99.90
758;DHT22;363;48.764;9.172;2023-04-25T04:54:58;9.00;99.90
758;DHT22;363;48.764;9.172;2023-04-25T04:57:23;9.00;99.90
758;DHT22;363;48.764;9.172;2023-04-25T04:59:49;9.40;99.90
758;DHT22;363;48.764;9.172;2023-04-25T05:02:15;8.90;99.90
758;DHT22;363;48.764;9.172;2023-04-25T05:04:41;9.30;99.90
758;DHT22;363;48.764;9.172;2023-04-25T05:07:06;9.40;99.90
758;DHT22;363;48.764;9.172;2023-04-25T05:09:32;9.20;99.90
758;DHT22;363;48.764;9.172;2023-04-25T05:11:57;9.40;99.90
758;DHT22;363;48.764;9.172;2023-04-25T05:14:23;9.20;99.90
758;DHT22;363;48.764;9.172;2023-04-25T05:16:48;9.30;99.90
758;DHT22;363;48.764;9.172;2023-04-25T05:19:14;9.30;99.90
758;DHT22;363;48.764;9.172;2023-04-25T05:21:40;9.80;99.90
758;DHT22;363;48.764;9.172;2023-04-25T05:24:05;9.60;99.90
758;DHT22;363;48.764;9.172;2023-04-25T05:26:31;10.00;99.90
758;DHT22;363;48.764;9.172;2023-04-25T05:29:00;9.70;99.90
758;DHT22;363;48.764;9.172;2023-04-25T05:31:27;9.90;99.90
758;DHT22;363;48.764;9.172;2023-04-25T05:33:52;10.00;99.90
758;DHT22;363;48.764;9.172;2023-04-25T05:36:19;10.50;99.90
758;DHT22;363;48.764;9.172;2023-04-25T05:38:45;10.00;99.90
758;DHT22;363;48.764;9.172;2023-04-25T05:41:10;10.20;99.90
758;DHT22;363;48.764;9.172;2023-04-25T05:43:36;10.20;99.90
758;DHT22;363;48.764;9.172;2023-04-25T05:46:01;10.50;99.90
758;DHT22;363;48.764;9.172;2023-04-25T05:48:27;11.00;99.90
758;DHT22;363;48.764;9.172;2023-04-25T05:50:52;10.60;99.90
758;DHT22;363;48.764;9.172;2023-04-25T05:53:19;10.60;99.90
758;DHT22;363;48.764;9.172;2023-04-25T05:55:45;11.00;99.90
758;DHT22;363;48.764;9.172;2023-04-25T05:58:10;10.60;99.90
758;DHT22;363;48.764;9.172;2023-04-25T06:00:36;10.80;99.90
758;DHT22;363;48.764;9.172;2023-04-25T06:03:01;10.70;99.90
758;DHT22;363;48.764;9.172;2023-04-25T06:05:27;10.60;99.90
758;DHT22;363;48.764;9.172;2023-04-25T06:07:53;10.80;99.90
758;DHT22;363;48.764;9.172;2023-04-25T06:10:18;10.90;99.90
758;DHT22;363;48.764;9.172;2023-04-25T06:12:44;11.70;99.90
758;DHT22;363;48.764;9.172;2023-04-25T06:15:10;10.80;99.90
758;DHT22;363;48.764;9.172;2023-04-25T06:17:36;10.60;99.90
758;DHT22;363;48.764;9.172;2023-04-25T06:20:02;10.70;99.90
758;DHT22;363;48.764;9.172;2023-04-25T06:22:28;10.20;99.90
758;DHT22;363;48.764;9.172;2023-04-25T06:24:54;10.30;99.90
758;DHT22;363;48.764;9.172;2023-04-25T06:27:22;10.70;99.90
758;DHT22;363;48.764;9.172;2023-04-25T06:29:48;10.10;99.90
758;DHT22;363;48.764;9.172;2023-04-25T06:34:39;10.40;99.90
758;DHT22;363;48.764;9.172;2023-04-25T06:37:05;10.80;99.90
758;DHT22;363;48.764;9.172;2023-04-25T06:39:30;10.40;99.90
758;DHT22;363;48.764;9.172;2023-04-25T06:41:56;10.60;99.90
758;DHT22;363;48.764;9.172;2023-04-25T06:44:21;10.80;99.90
758;DHT22;363;48.764;9.172;2023-04-25T06:46:49;10.90;99.90
758;DHT22;363;48.764;9.172;2023-04-25T06:49:14;10.70;99.90
758;DHT22;363;48.764;9.172;2023-04-25T06:51:41;11.00;99.90
758;DHT22;363;48.764;9.172;2023-04-25T06:54:06;10.50;99.90
758;DHT22;363;48.764;9.172;2023-04-25T06:56:32;10.70;99.90
758;DHT22;363;48.764;9.172;2023-04-25T06:58:57;10.60;99.90
758;DHT22;363;48.764;9.172;2023-04-25T07:01:23;12.20;99.90
758;DHT22;363;48.764;9.172;2023-04-25T07:03:48;10.50;99.90
758;DHT22;363;48.764;9.172;2023-04-25T07:06:14;10.30;99.90
758;DHT22;363;48.764;9.172;2023-04-25T07:08:40;10.20;99.90
758;DHT22;363;48.764;9.172;2023-04-25T07:11:05;10.40;99.90
758;DHT22;363;48.764;9.172;2023-04-25T07:13:31;10.00;99.90
758;DHT22;363;48.764;9.172;2023-04-25T07:15:56;10.60;99.90
758;DHT22;363;48.764;9.172;2023-04-25T07:18:22;10.70;99.90
758;DHT22;363;48.764;9.172;2023-04-25T07:20:47;10.20;99.90
758;DHT22;363;48.764;9.172;2023-04-25T07:23:13;10.00;99.90
758;DHT22;363;48.764;9.172;2023-04-25T07:25:39;10.20;99.90
758;DHT22;363;48.764;9.172;2023-04-25T07:28:04;9.90;99.90
758;DHT22;363;48.764;9.172;2023-04-25T07:30:30;9.70;99.90
758;DHT22;363;48.764;9.172;2023-04-25T07:32:56;9.70;99.90
758;DHT22;363;48.764;9.172;2023-04-25T07:35:21;9.80;99.90
758;DHT22;363;48.764;9.172;2023-04-25T07:37:50;9.90;99.90
758;DHT22;363;48.764;9.172;2023-04-25T07:40:16;9.90;99.90
758;DHT22;363;48.764;9.172;2023-04-25T07:42:42;9.70;99.90
758;DHT22;363;48.764;9.172;2023-04-25T07:45:07;9.40;99.90
758;DHT22;363;48.764;9.172;2023-04-25T07:47:34;9.70;99.90
758;DHT22;363;48.764;9.172;2023-04-25T07:50:00;9.70;99.90
758;DHT22;363;48.764;9.172;2023-04-25T07:52:26;9.80;99.90
758;DHT22;363;48.764;9.172;2023-04-25T07:54:51;9.70;99.90
758;DHT22;363;48.764;9.172;2023-04-25T07:57:17;9.90;99.90
758;DHT22;363;48.764;9.172;2023-04-25T07:59:43;9.60;99.90
758;DHT22;363;48.764;9.172;2023-04-25T08:02:09;10.10;99.90
758;DHT22;363;48.764;9.172;2023-04-25T08:04:34;9.30;99.90
758;DHT22;363;48.764;9.172;2023-04-25T08:07:00;10.00;99.90
758;DHT22;363;48.764;9.172;2023-04-25T08:09:26;9.30;99.90
758;DHT22;363;48.764;9.172;2023-04-25T08:11:52;9.60;99.90
758;DHT22;363;48.764;9.172;2023-04-25T08:14:17;9.80;99.90
758;DHT22;363;48.764;9.172;2023-04-25T08:16:43;9.80;99.90
758;DHT22;363;48.764;9.172;2023-04-25T08:19:09;9.80;99.90
758;DHT22;363;48.764;9.172;2023-04-25T08:21:36;9.20;99.90
758;DHT22;363;48.764;9.172;2023-04-25T08:24:01;9.60;99.90
758;DHT22;363;48.764;9.172;2023-04-25T08:26:28;9.40;99.90
758;DHT22;363;48.764;9.172;2023-04-25T08:28:54;9.80;99.90
758;DHT22;363;48.764;9.172;2023-04-25T08:31:19;10.00;99.90
758;DHT22;363;48.764;9.172;2023-04-25T08:33:45;9.60;99.90
758;DHT22;363;48.764;9.172;2023-04-25T08:36:11;10.00;99.90
758;DHT22;363;48.764;9.172;2023-04-25T08:38:37;9.60;99.90
758;DHT22;363;48.764;9.172;2023-04-25T08:41:03;9.40;99.90
758;DHT22;363;48.764;9.172;2023-04-25T08:43:30;9.50;99.90
758;DHT22;363;48.764;9.172;2023-04-25T08:46:00;9.30;99.90
758;DHT22;363;48.764;9.172;2023-04-25T08:48:27;9.80;99.90
758;DHT22;363;48.764;9.172;2023-04-25T08:50:56;9.80;99.90
758;DHT22;363;48.764;9.172;2023-04-25T08:53:26;9.30;99.90
758;DHT22;363;48.764;9.172;2023-04-25T08:55:54;9.40;99.90
758;DHT22;363;48.764;9.172;2023-04-25T08:58:20;9.80;99.90
758;DHT22;363;48.764;9.172;2023-04-25T09:00:46;9.90;99.90
758;DHT22;363;48.764;9.172;2023-04-25T09:03:12;10.10;99.90
758;DHT22;363;48.764;9.172;2023-04-25T09:05:39;10.20;99.90
758;DHT22;363;48.764;9.172;2023-04-25T09:08:06;10.00;99.90
758;DHT22;363;48.764;9.172;2023-04-25T09:10:31;10.50;99.90
758;DHT22;363;48.764;9.172;2023-04-25T09:13:08;9.90;99.90
758;DHT22;363;48.764;9.172;2023-04-25T09:15:56;9.10;99.90
758;DHT22;363;48.764;9.172;2023-04-25T09:18:32;9.80;99.90
758;DHT22;363;48.764;9.172;2023-04-25T09:21:08;9.20;99.90
758;DHT22;363;48.764;9.172;2023-04-25T09:24:00;10.00;99.90
758;DHT22;363;48.764;9.172;2023-04-25T09:26:26;10.30;99.90
758;DHT22;363;48.764;9.172;2023-04-25T09:29:05;9.60;99.90
758;DHT22;363;48.764;9.172;2023-04-25T09:31:33;9.90;99.90
758;DHT22;363;48.764;9.172;2023-04-25T09:33:59;9.80;99.90
758;DHT22;363;48.764;9.172;2023-04-25T09:36:30;10.00;99.90
758;DHT22;363;48.764;9.172;2023-04-25T09:38:55;9.60;99.90
758;DHT22;363;48.764;9.172;2023-04-25T09:41:24;9.90;99.90
758;DHT22;363;48.764;9.172;2023-04-25T09:43:50;9.70;99.90
758;DHT22;363;48.764;9.172;2023-04-25T09:46:16;10.10;99.90
758;DHT22;363;48.764;9.172;2023-04-25T09:48:49;9.80;99.90
758;DHT22;363;48.764;9.172;2023-04-25T09:51:15;9.70;99.90
758;DHT22;363;48.764;9.172;2023-04-25T09:53:45;9.70;99.90
758;DHT22;363;48.764;9.172;2023-04-25T09:56:12;9.40;99.90
758;DHT22;363;48.764;9.172;2023-04-25T09:58:39;10.10;99.90
758;DHT22;363;48.764;9.172;2023-04-25T10:01:07;9.90;99.90
758;DHT22;363;48.764;9.172;2023-04-25T10:03:35;9.80;99.90
758;DHT22;363;48.764;9.172;2023-04-25T10:06:07;9.50;99.90
758;DHT22;363;48.764;9.172;2023-04-25T10:08:35;9.70;99.90
758;DHT22;363;48.764;9.172;2023-04-25T10:11:03;9.10;99.90
758;DHT22;363;48.764;9.172;2023-04-25T10:13:30;9.60;99.90
758;DHT22;363;48.764;9.172;2023-04-25T10:16:01;9.20;99.90
758;DHT22;363;48.764;9.172;2023-04-25T10:18:28;9.70;99.90
758;DHT22;363;48.764;9.172;2023-04-25T10:20:55;9.70;99.90
758;DHT22;363;48.764;9.172;2023-04-25T10:23:22;9.10;99.90
758;DHT22;363;48.764;9.172;2023-04-25T10:25:49;9.70;99.90
758;DHT22;363;48.764;9.172;2023-04-25T10:28:15;10.00;99.90
758;DHT22;363;48.764;9.172;2023-04-25T10:33:32;9.40;99.90
758;DHT22;363;48.764;9.172;2023-04-25T10:35:58;9.80;99.90
758;DHT22;363;48.764;9.172;2023-04-25T10:38:33;9.60;99.90
758;DHT22;363;48.764;9.172;2023-04-25T10:41:03;9.80;99.90
758;DHT22;363;48.764;9.172;2023-04-25T10:43:46;10.00;99.90
758;DHT22;363;48.764;9.172;2023-04-25T10:48:51;9.80;99.90
758;DHT22;363;48.764;9.172;2023-04-25T10:51:25;9.90;99.90
758;DHT22;363;48.764;9.172;2023-04-25T10:54:03;9.10;99.90
758;DHT22;363;48.764;9.172;2023-04-25T10:56:33;9.40;99.90
758;DHT22;363;48.764;9.172;2023-04-25T10:59:13;9.40;99.90
758;DHT22;363;48.764;9.172;2023-04-25T11:01:40;9.50;99.90
758;DHT22;363;48.764;9.172;2023-04-25T11:04:06;9.60;99.90
758;DHT22;363;48.764;9.172;2023-04-25T11:07:23;9.00;99.90
758;DHT22;363;48.764;9.172;2023-04-25T11:09:51;9.30;99.90
758;DHT22;363;48.764;9.172;2023-04-25T11:12:17;9.20;99.90
758;DHT22;363;48.764;9.172;2023-04-25T11:14:43;9.10;99.90
758;DHT22;363;48.764;9.172;2023-04-25T11:17:08;9.10;99.90
758;DHT22;363;48.764;9.172;2023-04-25T11:19:35;8.90;99.90
758;DHT22;363;48.764;9.172;2023-04-25T11:22:01;8.80;99.90
758;DHT22;363;48.764;9.172;2023-04-25T11:24:32;9.50;99.90
758;DHT22;363;48.764;9.172;2023-04-25T11:26:59;8.90;99.90
758;DHT22;363;48.764;9.172;2023-04-25T11:29:28;9.70;99.90
758;DHT22;363;48.764;9.172;2023-04-25T11:31:55;9.10;99.90
758;DHT22;363;48.764;9.172;2023-04-25T11:34:24;9.50;99.90
758;DHT22;363;48.764;9.172;2023-04-25T11:36:51;9.80;99.90
758;DHT22;363;48.764;9.172;2023-04-25T11:39:18;9.60;99.90
758;DHT22;363;48.764;9.172;2023-04-25T11:41:44;9.90;99.90
758;DHT22;363;48.764;9.172;2023-04-25T11:44:10;10.00;99.90
758;DHT22;363;48.764;9.172;2023-04-25T11:46:35;10.20;99.90
758;DHT22;363;48.764;9.172;2023-04-25T11:49:01;10.20;99.90
758;DHT22;363;48.764;9.172;2023-04-25T11:51:27;10.40;99.90
758;DHT22;363;48.764;9.172;2023-04-25T11:53:52;10.50;99.90
758;DHT22;363;48.764;9.172;2023-04-25T11:56:18;10.10;99.90
758;DHT22;363;48.764;9.172;2023-04-25T12:01:35;10.00;99.90
758;DHT22;363;48.764;9.172;2023-04-25T12:04:13;10.00;99.90
758;DHT22;363;48.764;9.172;2023-04-25T12:06:40;9.90;99.90
758;DHT22;363;48.764;9.172;2023-04-25T12:09:08;10.30;99.90
758;DHT22;363;48.764;9.172;2023-04-25T12:11:44;9.40;99.90
758;DHT22;363;48.764;9.172;2023-04-25T12:14:11;10.00;99.90
758;DHT22;363;48.764;9.172;2023-04-25T12:16:44;10.10;99.90
758;DHT22;363;48.764;9.172;2023-04-25T12:19:14;9.60;99.90
758;DHT22;363;48.764;9.172;2023-04-25T12:21:40;9.80;99.90
758;DHT22;363;48.764;9.172;2023-04-25T12:24:26;9.80;99.90
758;DHT22;363;48.764;9.172;2023-04-25T12:27:03;10.00;99.90
758;DHT22;363;48.764;9.172;2023-04-25T12:29:31;10.50;99.90
758;DHT22;363;48.764;9.172;2023-04-25T12:31:57;9.90;99.90
758;DHT22;363;48.764;9.172;2023-04-25T12:34:23;9.40;99.90
758;DHT22;363;48.764;9.172;2023-04-25T12:36:50;10.10;99.90
758;DHT22;363;48.764;9.172;2023-04-25T12:39:17;10.20;99.90
758;DHT22;363;48.764;9.172;2023-04-25T12:41:46;10.50;99.90
758;DHT22;363;48.764;9.172;2023-04-25T12:44:12;10.20;99.90
758;DHT22;363;48.764;9.172;2023-04-25T12:46:37;10.30;99.90
758;DHT22;363;48.764;9.172;2023-04-25T12:49:04;10.70;99.90
758;DHT22;363;48.764;9.172;2023-04-25T12:51:30;11.00;99.90
758;DHT22;363;48.764;9.172;2023-04-25T12:53:58;11.10;99.90
758;DHT22;363;48.764;9.172;2023-04-25T12:56:24;11.30;99.90
758;DHT22;363;48.764;9.172;2023-04-25T12:58:50;11.40;99.90
758;DHT22;363;48.764;9.172;2023-04-25T13:01:16;11.80;99.90
758;DHT22;363;48.764;9.172;2023-04-25T13:03:41;12.10;99.90
758;DHT22;363;48.764;9.172;2023-04-25T13:06:07;12.40;99.90
758;DHT22;363;48.764;9.172;2023-04-25T13:08:33;12.10;99.90
758;DHT22;363;48.764;9.172;2023-04-25T13:10:58;12.70;99.90
758;DHT22;363;48.764;9.172;2023-04-25T13:13:25;12.20;99.90
758;DHT22;363;48.764;9.172;2023-04-25T13:15:52;12.80;99.90
758;DHT22;363;48.764;9.172;2023-04-25T13:18:19;12.30;99.90
758;DHT22;363;48.764;9.172;2023-04-25T13:20:44;12.10;99.90
758;DHT22;363;48.764;9.172;2023-04-25T13:23:11;12.20;99.90
758;DHT22;363;48.764;9.172;2023-04-25T13:25:37;12.40;99.90
758;DHT22;363;48.764;9.172;2023-04-25T13:28:03;12.10;99.90
758;DHT22;363;48.764;9.172;2023-04-25T13:30:28;12.20;99.90
758;DHT22;363;48.764;9.172;2023-04-25T13:32:54;11.60;99.90
758;DHT22;363;48.764;9.172;2023-04-25T13:35:22;12.40;99.90
758;DHT22;363;48.764;9.172;2023-04-25T13:37:47;12.40;99.90
758;DHT22;363;48.764;9.172;2023-04-25T13:40:13;12.40;99.90
758;DHT22;363;48.764;9.172;2023-04-25T13:42:39;12.90;99.90
758;DHT22;363;48.764;9.172;2023-04-25T13:45:06;12.20;99.90
758;DHT22;363;48.764;9.172;2023-04-25T13:47:32;12.40;99.90
758;DHT22;363;48.764;9.172;2023-04-25T13:49:57;12.50;99.90
758;DHT22;363;48.764;9.172;2023-04-25T13:52:23;12.30;99.90
758;DHT22;363;48.764;9.172;2023-04-25T13:54:52;12.30;99.90
758;DHT22;363;48.764;9.172;2023-04-25T13:59:45;12.00;99.90
758;DHT22;363;48.764;9.172;2023-04-25T14:02:12;12.00;99.90
758;DHT22;363;48.764;9.172;2023-04-25T14:04:37;12.20;99.90
758;DHT22;363;48.764;9.172;2023-04-25T14:07:03;12.50;99.90
758;DHT22;363;48.764;9.172;2023-04-25T14:09:30;12.10;99.90
758;DHT22;363;48.764;9.172;2023-04-25T14:11:58;11.90;99.90
758;DHT22;363;48.764;9.172;2023-04-25T14:14:24;12.00;99.90
758;DHT22;363;48.764;9.172;2023-04-25T14:16:50;12.60;99.90
758;DHT22;363;48.764;9.172;2023-04-25T14:19:17;12.60;99.90
758;DHT22;363;48.764;9.172;2023-04-25T14:21:43;13.40;99.90
758;DHT22;363;48.764;9.172;2023-04-25T14:24:10;13.10;99.90
758;DHT22;363;48.764;9.172;2023-04-25T14:26:38;13.00;99.90
758;DHT22;363;48.764;9.172;2023-04-25T14:29:07;12.50;99.90
758;DHT22;363;48.764;9.172;2023-04-25T14:31:34;13.10;99.90
758;DHT22;363;48.764;9.172;2023-04-25T14:34:01;13.00;99.90
758;DHT22;363;48.764;9.172;2023-04-25T14:36:30;12.90;99.90
758;DHT22;363;48.764;9.172;2023-04-25T14:38:59;13.10;99.90
758;DHT22;363;48.764;9.172;2023-04-25T14:41:27;13.00;97.40
758;DHT22;363;48.764;9.172;2023-04-25T14:43:53;12.80;97.20
758;DHT22;363;48.764;9.172;2023-04-25T14:46:20;12.10;97.90
758;DHT22;363;48.764;9.172;2023-04-25T14:48:47;12.50;99.10
758;DHT22;363;48.764;9.172;2023-04-25T14:51:12;12.40;99.50
758;DHT22;363;48.764;9.172;2023-04-25T14:53:39;12.60;99.90
758;DHT22;363;48.764;9.172;2023-04-25T14:56:05;12.60;98.90
758;DHT22;363;48.764;9.172;2023-04-25T14:58:31;12.50;99.50
758;DHT22;363;48.764;9.172;2023-04-25T15:00:57;12.80;98.70
758;DHT22;363;48.764;9.172;2023-04-25T15:03:22;12.90;98.80
758;DHT22;363;48.764;9.172;2023-04-25T15:05:48;12.80;98.80
758;DHT22;363;48.764;9.172;2023-04-25T15:08:13;12.80;98.90
758;DHT22;363;48.764;9.172;2023-04-25T15:10:39;13.10;98.20
758;DHT22;363;48.764;9.172;2023-04-25T15:13:04;13.90;98.60
758;DHT22;363;48.764;9.172;2023-04-25T15:15:30;13.50;97.20
758;DHT22;363;48.764;9.172;2023-04-25T15:17:57;13.70;97.20
758;DHT22;363;48.764;9.172;2023-04-25T15:20:22;14.30;96.90
758;DHT22;363;48.764;9.172;2023-04-25T15:22:48;13.70;96.40
758;DHT22;363;48.764;9.172;2023-04-25T15:25:15;13.40;96.60
758;DHT22;363;48.764;9.172;2023-04-25T15:27:43;13.90;97.10
758;DHT22;363;48.764;9.172;2023-04-25T15:30:12;13.80;97.60
758;DHT22;363;48.764;9.172;2023-04-25T15:32:40;13.60;97.30
758;DHT22;363;48.764;9.172;2023-04-25T15:35:07;13.30;96.70
758;DHT22;363;48.764;9.172;2023-04-25T15:37:33;13.10;96.50
758;DHT22;363;48.764;9.172;2023-04-25T15:40:02;13.00;96.80
758;DHT22;363;48.764;9.172;2023-04-25T15:42:39;12.90;97.20
758;DHT22;363;48.764;9.172;2023-04-25T15:45:07;12.50;97.30
758;DHT22;363;48.764;9.172;2023-04-25T15:47:34;13.00;96.70
758;DHT22;363;48.764;9.172;2023-04-25T15:50:01;12.50;96.50
758;DHT22;363;48.764;9.172;2023-04-25T15:52:27;13.00;97.50
758;DHT22;363;48.764;9.172;2023-04-25T15:54:53;12.80;97.20
758;DHT22;363;48.764;9.172;2023-04-25T15:57:19;12.80;97.10
758;DHT22;363;48.764;9.172;2023-04-25T15:59:46;12.90;97.00
758;DHT22;363;48.764;9.172;2023-04-25T16:02:13;12.60;96.70
758;DHT22;363;48.764;9.172;2023-04-25T16:04:38;12.60;96.40
758;DHT22;363;48.764;9.172;2023-04-25T16:07:04;12.90;96.40
758;DHT22;363;48.764;9.172;2023-04-25T16:09:31;12.50;96.70
758;DHT22;363;48.764;9.172;2023-04-25T16:11:57;12.60;97.90
758;DHT22;363;48.764;9.172;2023-04-25T16:14:23;12.30;97.80
758;DHT22;363;48.764;9.172;2023-04-25T16:16:49;12.60;98.20
758;DHT22;363;48.764;9.172;2023-04-25T16:19:15;13.10;98.20
758;DHT22;363;48.764;9.172;2023-04-25T16:21:40;12.50;97.90
758;DHT22;363;48.764;9.172;2023-04-25T16:24:07;13.00;98.20
758;DHT22;363;48.764;9.172;2023-04-25T16:26:32;12.60;98.30
758;DHT22;363;48.764;9.172;2023-04-25T16:28:58;12.80;98.90
758;DHT22;363;48.764;9.172;2023-04-25T16:31:24;12.30;98.80
758;DHT22;363;48.764;9.172;2023-04-25T16:33:50;12.30;98.10
758;DHT22;363;48.764;9.172;2023-04-25T16:36:15;12.40;98.40
758;DHT22;363;48.764;9.172;2023-04-25T16:38:41;12.40;97.90
758;DHT22;363;48.764;9.172;2023-04-25T16:41:07;11.80;97.20
758;DHT22;363;48.764;9.172;2023-04-25T16:43:32;12.50;97.70
758;DHT22;363;48.764;9.172;2023-04-25T16:45:58;12.80;96.20
758;DHT22;363;48.764;9.172;2023-04-25T16:48:24;12.80;96.80
758;DHT22;363;48.764;9.172;2023-04-25T16:50:51;12.40;97.00